Time;durP1;ratioP1;P1;durP2;ratioP2;P2;SDS_P1;SDS_P2;PMS_P1;PMS_P2;Temp;Humidity;BMP_temperature;BMP_pressure;BME280_temperature;BME280_humidity;BME280_pressure;Samples;Min_cycle;Max_cycle;Signal;HPM_P1;HPM_P2
2022/03/11 00:02:15;;;;;;;;;;;7.70;99.90;;;;;;5094931;28;19987;-79
2022/03/11 00:04:41;;;;;;;;;;;7.70;99.90;;;;;;5093727;28;19908;-78
2022/03/11 00:07:07;;;;;;;;;;;7.70;99.90;;;;;;5094368;28;19934;-78
2022/03/11 00:09:34;;;;;;;;;;;7.70;99.90;;;;;;5093764;28;19914;-78
2022/03/11 00:11:59;;;;;;;;;;;7.70;99.90;;;;;;5094608;28;20262;-77
2022/03/11 00:14:25;;;;;;;;;;;7.70;99.90;;;;;;5093868;28;19955;-77
2022/03/11 00:16:51;;;;;;;;;;;7.70;99.90;;;;;;5094139;28;19908;-78
2022/03/11 00:19:16;;;;;;;;;;;7.80;99.90;;;;;;5094375;28;19998;-77
2022/03/11 00:21:42;;;;;;;;;;;7.90;99.90;;;;;;5093077;28;20277;-77
2022/03/11 00:24:07;;;;;;;;;;;8.00;99.90;;;;;;5094157;28;19915;-79
2022/03/11 00:26:34;;;;;;;;;;;8.00;99.90;;;;;;5093440;28;19958;-76
2022/03/11 00:29:00;;;;;;;;;;;8.00;99.90;;;;;;5094335;28;19929;-76
2022/03/11 00:31:27;;;;;;;;;;;8.00;99.90;;;;;;5093216;28;19935;-76
2022/03/11 00:33:53;;;;;;;;;;;8.10;99.90;;;;;;5094088;28;20308;-78
2022/03/11 00:36:19;;;;;;;;;;;8.10;99.90;;;;;;5094047;28;19947;-77
2022/03/11 00:38:44;;;;;;;;;;;8.10;99.90;;;;;;5093464;28;19908;-77
2022/03/11 00:41:10;;;;;;;;;;;8.10;99.90;;;;;;5092829;28;19908;-77
2022/03/11 00:43:35;;;;;;;;;;;8.10;99.90;;;;;;5093411;28;19915;-76
2022/03/11 00:46:01;;;;;;;;;;;8.10;99.90;;;;;;5094279;28;19908;-76
2022/03/11 00:48:27;;;;;;;;;;;8.10;99.90;;;;;;5092795;28;20349;-76
2022/03/11 00:50:53;;;;;;;;;;;8.10;99.90;;;;;;5093662;28;19927;-75
2022/03/11 00:53:19;;;;;;;;;;;8.10;99.90;;;;;;5093712;28;19924;-78
2022/03/11 00:55:45;;;;;;;;;;;8.10;99.90;;;;;;5093485;28;19967;-76
2022/03/11 00:58:10;;;;;;;;;;;8.00;99.90;;;;;;5093209;28;20357;-76
2022/03/11 01:00:36;;;;;;;;;;;8.10;99.90;;;;;;5093040;28;19909;-76
2022/03/11 01:03:01;;;;;;;;;;;8.00;99.90;;;;;;5093482;28;20367;-77
2022/03/11 01:05:27;;;;;;;;;;;8.00;99.90;;;;;;5092920;28;19911;-76
2022/03/11 01:07:53;;;;;;;;;;;8.00;99.90;;;;;;5092999;28;20430;-78
2022/03/11 01:10:19;;;;;;;;;;;8.00;99.90;;;;;;5093405;28;19916;-76
2022/03/11 01:12:44;;;;;;;;;;;8.00;99.90;;;;;;5094194;28;20506;-76
2022/03/11 01:15:10;;;;;;;;;;;8.00;99.90;;;;;;5094766;28;19908;-76
2022/03/11 01:17:36;;;;;;;;;;;8.00;99.90;;;;;;5092531;28;20376;-76
2022/03/11 01:20:02;;;;;;;;;;;8.00;99.90;;;;;;5092028;28;19908;-76
2022/03/11 01:22:29;;;;;;;;;;;8.00;99.90;;;;;;5092647;28;20351;-75
2022/03/11 01:24:55;;;;;;;;;;;8.00;99.90;;;;;;5093486;28;19951;-76
2022/03/11 01:27:20;;;;;;;;;;;8.00;99.90;;;;;;5093246;28;20383;-76
2022/03/11 01:29:46;;;;;;;;;;;8.00;99.90;;;;;;5092280;28;19908;-76
2022/03/11 01:32:11;;;;;;;;;;;8.00;99.90;;;;;;5092745;28;19965;-76
2022/03/11 01:34:37;;;;;;;;;;;8.00;99.90;;;;;;5092589;28;20389;-76
2022/03/11 01:37:04;;;;;;;;;;;8.00;99.90;;;;;;5092749;28;19912;-76
2022/03/11 01:39:30;;;;;;;;;;;8.00;99.90;;;;;;5092522;28;19912;-76
2022/03/11 01:41:55;;;;;;;;;;;8.00;99.90;;;;;;5093079;28;20344;-77
2022/03/11 01:44:23;;;;;;;;;;;8.00;99.90;;;;;;5093014;28;19908;-79
2022/03/11 01:46:48;;;;;;;;;;;8.00;99.90;;;;;;5092397;28;20264;-76
2022/03/11 01:49:14;;;;;;;;;;;8.00;99.90;;;;;;5092755;28;19915;-78
2022/03/11 01:51:41;;;;;;;;;;;7.90;99.90;;;;;;5092238;28;20303;-79
2022/03/11 01:54:06;;;;;;;;;;;7.90;99.90;;;;;;5093050;28;19991;-77
2022/03/11 01:56:32;;;;;;;;;;;7.90;99.90;;;;;;5092391;28;19974;-76
2022/03/11 01:58:58;;;;;;;;;;;7.90;99.90;;;;;;5092665;28;19973;-77
2022/03/11 02:01:24;;;;;;;;;;;7.90;99.90;;;;;;5094998;28;19908;-77
2022/03/11 02:03:50;;;;;;;;;;;7.90;99.90;;;;;;5096434;28;20272;-78
2022/03/11 02:06:16;;;;;;;;;;;7.80;99.90;;;;;;5096846;28;19908;-77
2022/03/11 02:08:42;;;;;;;;;;;7.80;99.90;;;;;;5095995;28;19944;-76
2022/03/11 02:11:07;;;;;;;;;;;7.80;99.90;;;;;;5095487;28;19951;-77
2022/03/11 02:13:43;;;;;;;;;;;7.80;99.90;;;;;;5096341;28;19962;-76
2022/03/11 02:16:15;;;;;;;;;;;7.90;99.90;;;;;;5096694;28;19912;-77
2022/03/11 02:18:41;;;;;;;;;;;7.90;99.90;;;;;;5096217;28;19916;-76
2022/03/11 02:21:09;;;;;;;;;;;7.90;99.90;;;;;;5096440;28;19909;-77
2022/03/11 02:23:44;;;;;;;;;;;7.90;99.90;;;;;;5095649;28;19912;-76
2022/03/11 02:26:10;;;;;;;;;;;7.90;99.90;;;;;;5096306;28;20410;-77
2022/03/11 02:28:35;;;;;;;;;;;7.80;99.90;;;;;;5096140;28;19915;-76
2022/03/11 02:31:01;;;;;;;;;;;7.80;99.90;;;;;;5111941;28;19903;-77
2022/03/11 02:33:27;;;;;;;;;;;7.80;99.90;;;;;;5098148;28;19912;-76
2022/03/11 02:35:52;;;;;;;;;;;7.80;99.90;;;;;;5095916;28;19915;-76
2022/03/11 02:38:18;;;;;;;;;;;7.80;99.90;;;;;;5096270;28;19912;-77
2022/03/11 02:40:43;;;;;;;;;;;7.80;99.90;;;;;;5095626;28;19908;-76
2022/03/11 02:43:09;;;;;;;;;;;7.80;99.90;;;;;;5096476;28;20258;-76
2022/03/11 02:45:35;;;;;;;;;;;7.80;99.90;;;;;;5095654;28;19908;-78
2022/03/11 02:48:00;;;;;;;;;;;7.80;99.90;;;;;;5094584;28;19953;-78
2022/03/11 02:50:26;;;;;;;;;;;7.80;99.90;;;;;;5096051;28;19912;-77
2022/03/11 02:52:51;;;;;;;;;;;7.80;99.90;;;;;;5094291;28;19920;-78
2022/03/11 02:55:17;;;;;;;;;;;7.80;99.90;;;;;;5096190;28;19952;-77
2022/03/11 02:57:43;;;;;;;;;;;7.80;99.90;;;;;;5095293;28;20315;-77
2022/03/11 03:00:08;;;;;;;;;;;7.80;99.90;;;;;;5096357;28;20368;-78
2022/03/11 03:02:34;;;;;;;;;;;7.80;99.90;;;;;;5096260;28;19908;-77
2022/03/11 03:05:01;;;;;;;;;;;7.80;99.90;;;;;;5095962;28;20371;-79
2022/03/11 03:07:27;;;;;;;;;;;7.80;99.90;;;;;;5095384;28;20414;-78
2022/03/11 03:09:52;;;;;;;;;;;7.80;99.90;;;;;;5093745;28;19916;-77
2022/03/11 03:12:18;;;;;;;;;;;7.90;99.90;;;;;;5095452;28;19916;-78
2022/03/11 03:14:44;;;;;;;;;;;7.90;99.90;;;;;;5094965;28;20321;-76
2022/03/11 03:17:09;;;;;;;;;;;7.80;99.90;;;;;;5095598;28;19966;-77
2022/03/11 03:19:35;;;;;;;;;;;7.80;99.90;;;;;;5094939;28;20274;-76
2022/03/11 03:22:02;;;;;;;;;;;7.80;99.90;;;;;;5095442;28;19908;-77
2022/03/11 03:24:28;;;;;;;;;;;7.90;99.90;;;;;;5095147;28;19908;-77
2022/03/11 03:26:55;;;;;;;;;;;7.90;99.90;;;;;;5094631;28;19965;-77
2022/03/11 03:29:21;;;;;;;;;;;7.90;99.90;;;;;;5095253;28;19934;-77
2022/03/11 03:31:47;;;;;;;;;;;7.90;99.90;;;;;;5094464;28;19912;-77
2022/03/11 03:34:12;;;;;;;;;;;7.90;99.90;;;;;;5095308;28;19912;-78
2022/03/11 03:36:38;;;;;;;;;;;7.90;99.90;;;;;;5094529;28;19962;-77
2022/03/11 03:39:03;;;;;;;;;;;7.90;99.90;;;;;;5095206;28;19916;-77
2022/03/11 03:41:29;;;;;;;;;;;8.00;99.90;;;;;;5094919;28;20361;-80
2022/03/11 03:43:54;;;;;;;;;;;8.00;99.90;;;;;;5094318;28;19910;-77
2022/03/11 03:46:20;;;;;;;;;;;8.00;99.90;;;;;;5095105;28;19999;-76
2022/03/11 03:48:46;;;;;;;;;;;8.00;99.90;;;;;;5106478;28;19917;-77
2022/03/11 03:51:11;;;;;;;;;;;8.00;99.90;;;;;;5094605;28;20006;-77
2022/03/11 03:53:37;;;;;;;;;;;8.00;99.90;;;;;;5094554;28;19912;-76
2022/03/11 03:56:02;;;;;;;;;;;8.00;99.90;;;;;;5094612;28;20371;-77
2022/03/11 03:58:28;;;;;;;;;;;8.00;99.90;;;;;;5094818;28;19927;-77
2022/03/11 04:00:53;;;;;;;;;;;8.00;99.90;;;;;;5093857;28;19908;-77
2022/03/11 04:03:19;;;;;;;;;;;8.10;99.90;;;;;;5094801;28;19915;-78
2022/03/11 04:05:45;;;;;;;;;;;8.00;99.90;;;;;;5094436;28;19908;-77
2022/03/11 04:08:10;;;;;;;;;;;8.10;99.90;;;;;;5093307;28;20341;-77
2022/03/11 04:10:36;;;;;;;;;;;8.10;99.90;;;;;;5094226;28;20003;-76
2022/03/11 04:13:02;;;;;;;;;;;8.10;99.90;;;;;;5094339;28;19912;-77
2022/03/11 04:15:28;;;;;;;;;;;8.10;99.90;;;;;;5094580;28;20327;-77
2022/03/11 04:17:53;;;;;;;;;;;8.10;99.90;;;;;;5093949;28;19908;-77
2022/03/11 04:20:19;;;;;;;;;;;8.20;99.90;;;;;;5094162;28;19908;-77
2022/03/11 04:22:45;;;;;;;;;;;8.20;99.90;;;;;;5093230;28;19909;-76
2022/03/11 04:25:11;;;;;;;;;;;8.10;99.90;;;;;;5093535;28;19931;-78
2022/03/11 04:27:36;;;;;;;;;;;8.20;99.90;;;;;;5093947;28;19908;-76
2022/03/11 04:30:03;;;;;;;;;;;8.20;99.90;;;;;;5093796;28;19920;-77
2022/03/11 04:32:28;;;;;;;;;;;8.20;99.90;;;;;;5094293;28;19931;-77
2022/03/11 04:34:54;;;;;;;;;;;8.20;99.90;;;;;;5092270;28;19908;-77
2022/03/11 04:37:19;;;;;;;;;;;8.20;99.90;;;;;;5093757;28;19961;-78
2022/03/11 04:39:45;;;;;;;;;;;8.10;99.90;;;;;;5093414;28;20401;-77
2022/03/11 04:42:11;;;;;;;;;;;8.10;99.90;;;;;;5092737;28;20246;-77
2022/03/11 04:44:36;;;;;;;;;;;8.10;99.90;;;;;;5092705;28;20345;-77
2022/03/11 04:47:02;;;;;;;;;;;8.10;99.90;;;;;;5093222;28;19908;-77
2022/03/11 04:49:28;;;;;;;;;;;8.10;99.90;;;;;;5093812;28;19908;-78
2022/03/11 04:51:53;;;;;;;;;;;8.10;99.90;;;;;;5093066;28;19919;-77
2022/03/11 04:54:19;;;;;;;;;;;8.10;99.90;;;;;;5093719;28;19919;-77
2022/03/11 04:56:44;;;;;;;;;;;8.10;99.90;;;;;;5093130;28;19952;-78
2022/03/11 04:59:10;;;;;;;;;;;8.20;99.90;;;;;;5093523;28;19920;-76
2022/03/11 05:01:35;;;;;;;;;;;8.20;99.90;;;;;;5093320;28;19909;-77
2022/03/11 05:04:01;;;;;;;;;;;8.20;99.90;;;;;;5096127;28;19927;-79
2022/03/11 05:06:27;;;;;;;;;;;8.20;99.90;;;;;;5102418;28;19908;-78
2022/03/11 05:08:52;;;;;;;;;;;8.20;99.90;;;;;;5092948;28;19943;-77
2022/03/11 05:11:18;;;;;;;;;;;8.30;99.90;;;;;;5093228;28;19927;-77
2022/03/11 05:13:43;;;;;;;;;;;8.20;99.90;;;;;;5092929;28;19912;-77
2022/03/11 05:16:09;;;;;;;;;;;8.20;99.90;;;;;;5093363;28;19915;-77
2022/03/11 05:18:34;;;;;;;;;;;8.20;99.90;;;;;;5093424;28;19922;-78
2022/03/11 05:21:00;;;;;;;;;;;8.30;99.90;;;;;;5092843;28;20582;-77
2022/03/11 05:23:25;;;;;;;;;;;8.30;99.90;;;;;;5093426;28;19954;-77
2022/03/11 05:25:51;;;;;;;;;;;8.30;99.90;;;;;;5092678;28;19962;-77
2022/03/11 05:28:17;;;;;;;;;;;8.30;99.90;;;;;;5092750;28;19908;-77
2022/03/11 05:30:42;;;;;;;;;;;8.40;99.90;;;;;;5092820;28;19957;-76
2022/03/11 05:33:08;;;;;;;;;;;8.30;99.90;;;;;;5092978;28;19961;-77
2022/03/11 05:35:34;;;;;;;;;;;8.30;99.90;;;;;;5090992;28;20269;-77
2022/03/11 05:38:00;;;;;;;;;;;8.40;99.90;;;;;;5092646;28;19908;-78
2022/03/11 05:40:25;;;;;;;;;;;8.40;99.90;;;;;;5092773;28;19916;-77
2022/03/11 05:42:51;;;;;;;;;;;8.40;99.90;;;;;;5092306;28;19908;-77
2022/03/11 05:45:17;;;;;;;;;;;8.50;99.90;;;;;;5092891;28;19912;-77
2022/03/11 05:47:43;;;;;;;;;;;8.40;99.90;;;;;;5092729;28;19908;-77
2022/03/11 05:50:09;;;;;;;;;;;8.40;99.90;;;;;;5092857;28;19922;-77
2022/03/11 05:52:38;;;;;;;;;;;8.40;99.90;;;;;;5092927;28;19916;-77
2022/03/11 05:55:04;;;;;;;;;;;8.40;99.90;;;;;;5092123;28;19908;-77
2022/03/11 05:57:29;;;;;;;;;;;8.40;99.90;;;;;;5092987;28;19919;-77
2022/03/11 05:59:55;;;;;;;;;;;8.40;99.90;;;;;;5090913;28;19920;-77
2022/03/11 06:02:21;;;;;;;;;;;8.40;99.90;;;;;;5091581;28;19908;-77
2022/03/11 06:04:46;;;;;;;;;;;8.50;99.90;;;;;;5092248;28;19946;-76
2022/03/11 06:07:12;;;;;;;;;;;8.50;99.90;;;;;;5092581;28;20003;-77
2022/03/11 06:09:38;;;;;;;;;;;8.50;99.90;;;;;;5092911;28;20289;-78
2022/03/11 06:12:04;;;;;;;;;;;8.50;99.90;;;;;;5092001;28;19920;-77
2022/03/11 06:14:29;;;;;;;;;;;8.50;99.90;;;;;;5092638;28;19912;-77
2022/03/11 06:16:55;;;;;;;;;;;8.50;99.90;;;;;;5092214;28;19957;-76
2022/03/11 06:19:20;;;;;;;;;;;8.50;99.90;;;;;;5092483;28;19961;-77
2022/03/11 06:21:46;;;;;;;;;;;8.50;99.90;;;;;;5092462;28;19908;-75
2022/03/11 06:24:12;;;;;;;;;;;8.50;99.90;;;;;;5092011;28;19912;-77
2022/03/11 06:26:38;;;;;;;;;;;8.50;99.90;;;;;;5092361;28;20364;-79
2022/03/11 06:29:04;;;;;;;;;;;8.60;99.90;;;;;;5092094;28;19954;-77
2022/03/11 06:31:29;;;;;;;;;;;8.60;99.90;;;;;;5091210;28;19917;-76
2022/03/11 06:33:57;;;;;;;;;;;8.60;99.90;;;;;;5092067;28;19997;-76
2022/03/11 06:36:22;;;;;;;;;;;8.60;99.90;;;;;;5092507;28;19991;-76
2022/03/11 06:38:48;;;;;;;;;;;8.60;99.90;;;;;;5092158;28;19973;-76
2022/03/11 06:41:13;;;;;;;;;;;8.60;99.90;;;;;;5092119;28;19915;-77
2022/03/11 06:43:39;;;;;;;;;;;8.60;99.90;;;;;;5092320;28;20454;-79
2022/03/11 06:46:04;;;;;;;;;;;8.60;99.90;;;;;;5091643;28;19908;-76
2022/03/11 06:48:31;;;;;;;;;;;8.60;99.90;;;;;;5095837;28;19923;-78
2022/03/11 06:50:57;;;;;;;;;;;8.60;99.90;;;;;;5100423;28;19930;-78
2022/03/11 06:53:26;;;;;;;;;;;8.70;99.90;;;;;;5098874;28;19961;-77
2022/03/11 06:55:52;;;;;;;;;;;8.70;99.90;;;;;;5095194;28;19947;-76
2022/03/11 06:58:18;;;;;;;;;;;8.70;99.90;;;;;;5095687;28;19997;-77
2022/03/11 07:00:44;;;;;;;;;;;8.80;99.90;;;;;;5095986;28;19970;-77
2022/03/11 07:03:09;;;;;;;;;;;8.70;99.90;;;;;;5095306;28;20353;-78
2022/03/11 07:05:35;;;;;;;;;;;8.70;99.90;;;;;;5095913;28;19978;-76
2022/03/11 07:08:00;;;;;;;;;;;8.80;99.90;;;;;;5095185;28;19912;-76
2022/03/11 07:10:26;;;;;;;;;;;8.80;99.90;;;;;;5095686;28;20288;-76
2022/03/11 07:12:52;;;;;;;;;;;8.80;99.90;;;;;;5094602;28;19912;-76
2022/03/11 07:15:17;;;;;;;;;;;8.90;99.90;;;;;;5095334;28;19908;-77
2022/03/11 07:17:43;;;;;;;;;;;8.90;99.90;;;;;;5095293;28;19912;-77
2022/03/11 07:20:09;;;;;;;;;;;9.00;99.90;;;;;;5095034;28;20607;-76
2022/03/11 07:22:35;;;;;;;;;;;9.00;99.90;;;;;;5095365;28;20318;-78
2022/03/11 07:25:00;;;;;;;;;;;9.00;99.90;;;;;;5094568;28;19908;-77
2022/03/11 07:27:26;;;;;;;;;;;9.00;99.90;;;;;;5095704;28;19931;-80
2022/03/11 07:29:53;;;;;;;;;;;9.00;99.90;;;;;;5093352;28;20274;-75
2022/03/11 07:32:19;;;;;;;;;;;9.00;99.90;;;;;;5095612;28;19923;-79
2022/03/11 07:34:44;;;;;;;;;;;9.10;99.90;;;;;;5094916;28;19916;-77
2022/03/11 07:37:13;;;;;;;;;;;9.00;99.90;;;;;;5093384;28;19924;-77
2022/03/11 07:39:39;;;;;;;;;;;9.10;99.90;;;;;;5095002;28;20368;-76
2022/03/11 07:42:05;;;;;;;;;;;9.10;99.90;;;;;;5094340;28;19908;-79
2022/03/11 07:44:31;;;;;;;;;;;9.10;99.90;;;;;;5094827;28;19961;-77
2022/03/11 07:46:56;;;;;;;;;;;9.10;99.90;;;;;;5094360;28;19908;-76
2022/03/11 07:49:23;;;;;;;;;;;9.10;99.90;;;;;;5094517;28;20262;-79
2022/03/11 07:51:49;;;;;;;;;;;9.10;99.90;;;;;;5094673;28;19916;-77
2022/03/11 07:54:14;;;;;;;;;;;9.10;99.90;;;;;;5093959;28;19920;-79
2022/03/11 07:56:40;;;;;;;;;;;9.10;99.90;;;;;;5094635;28;20278;-77
2022/03/11 07:59:06;;;;;;;;;;;9.10;99.90;;;;;;5092296;28;19965;-78
2022/03/11 08:01:31;;;;;;;;;;;9.10;99.90;;;;;;5094143;28;19963;-78
2022/03/11 08:03:57;;;;;;;;;;;9.00;99.90;;;;;;5092765;28;19986;-78
2022/03/11 08:06:22;;;;;;;;;;;9.00;99.90;;;;;;5102965;28;19915;-78
2022/03/11 08:08:49;;;;;;;;;;;9.10;99.90;;;;;;5102699;28;19912;-79
2022/03/11 08:11:15;;;;;;;;;;;9.10;99.90;;;;;;5093612;28;19908;-79
2022/03/11 08:13:41;;;;;;;;;;;9.00;99.90;;;;;;5094275;28;19939;-78
2022/03/11 08:16:07;;;;;;;;;;;9.00;99.90;;;;;;5093596;28;20311;-79
2022/03/11 08:18:33;;;;;;;;;;;9.10;99.90;;;;;;5093765;28;20269;-79
2022/03/11 08:20:59;;;;;;;;;;;9.00;99.90;;;;;;5093642;28;19990;-79
2022/03/11 08:23:25;;;;;;;;;;;9.10;99.90;;;;;;5094216;28;19909;-79
2022/03/11 08:25:50;;;;;;;;;;;9.10;99.90;;;;;;5094461;28;19915;-79
2022/03/11 08:28:16;;;;;;;;;;;9.10;99.90;;;;;;5093203;28;20199;-79
2022/03/11 08:30:43;;;;;;;;;;;9.00;99.90;;;;;;5094070;28;20420;-79
2022/03/11 08:33:10;;;;;;;;;;;9.00;99.90;;;;;;5093234;28;19916;-80
2022/03/11 08:35:36;;;;;;;;;;;9.10;99.90;;;;;;5093786;28;19908;-80
2022/03/11 08:38:04;;;;;;;;;;;9.00;99.90;;;;;;5093325;28;19915;-79
2022/03/11 08:40:30;;;;;;;;;;;9.10;99.90;;;;;;5093500;28;19912;-79
2022/03/11 08:42:55;;;;;;;;;;;9.00;99.90;;;;;;5093776;28;20250;-79
2022/03/11 08:45:21;;;;;;;;;;;9.00;99.90;;;;;;5093309;28;19931;-80
2022/03/11 08:47:47;;;;;;;;;;;9.00;99.90;;;;;;5093485;28;20003;-80
2022/03/11 08:50:13;;;;;;;;;;;9.00;99.90;;;;;;5092856;28;19913;-79
2022/03/11 08:52:40;;;;;;;;;;;9.00;99.90;;;;;;5093947;28;19939;-79
2022/03/11 08:55:06;;;;;;;;;;;9.00;99.90;;;;;;5093530;28;19970;-79
2022/03/11 08:57:31;;;;;;;;;;;9.00;99.90;;;;;;5093470;28;20440;-80
2022/03/11 08:59:57;;;;;;;;;;;9.00;99.90;;;;;;5093480;28;20022;-78
2022/03/11 09:02:23;;;;;;;;;;;9.00;99.90;;;;;;5092766;28;20315;-80
2022/03/11 09:04:49;;;;;;;;;;;9.00;99.90;;;;;;5093026;28;19959;-80
2022/03/11 09:07:15;;;;;;;;;;;9.00;99.90;;;;;;5092532;28;20357;-79
2022/03/11 09:09:41;;;;;;;;;;;9.00;99.90;;;;;;5097686;28;19922;-79
2022/03/11 09:12:07;;;;;;;;;;;9.00;99.90;;;;;;5108294;28;19923;-78
2022/03/11 09:14:32;;;;;;;;;;;9.00;99.90;;;;;;5093904;28;19909;-79
2022/03/11 09:16:58;;;;;;;;;;;9.00;99.90;;;;;;5092288;28;19925;-79
2022/03/11 09:19:24;;;;;;;;;;;9.00;99.90;;;;;;5093486;28;19908;-79
2022/03/11 09:21:49;;;;;;;;;;;9.00;99.90;;;;;;5093533;28;19981;-78
2022/03/11 09:24:15;;;;;;;;;;;9.00;99.90;;;;;;5093005;28;19908;-80
2022/03/11 09:26:41;;;;;;;;;;;9.00;99.90;;;;;;5091755;28;19908;-80
2022/03/11 09:29:07;;;;;;;;;;;9.00;99.90;;;;;;5092264;28;19974;-80
2022/03/11 09:31:34;;;;;;;;;;;8.90;99.90;;;;;;5092782;28;19913;-80
2022/03/11 09:33:59;;;;;;;;;;;8.90;99.90;;;;;;5092280;28;19912;-77
2022/03/11 09:36:26;;;;;;;;;;;8.90;99.90;;;;;;5092705;28;19953;-80
2022/03/11 09:38:51;;;;;;;;;;;8.90;99.90;;;;;;5092659;28;20335;-80
2022/03/11 09:41:19;;;;;;;;;;;8.90;99.90;;;;;;5092253;28;19908;-80
2022/03/11 09:43:45;;;;;;;;;;;8.90;99.90;;;;;;5093199;28;19908;-81
2022/03/11 09:46:10;;;;;;;;;;;8.90;99.90;;;;;;5092301;28;20315;-80
2022/03/11 09:48:36;;;;;;;;;;;8.90;99.90;;;;;;5092796;28;19908;-80
2022/03/11 09:51:02;;;;;;;;;;;8.90;99.90;;;;;;5092015;28;20307;-79
2022/03/11 09:53:28;;;;;;;;;;;8.80;99.90;;;;;;5092894;28;20293;-80
2022/03/11 09:55:53;;;;;;;;;;;8.80;99.90;;;;;;5092758;28;19951;-80
2022/03/11 09:58:19;;;;;;;;;;;8.80;99.90;;;;;;5092149;28;19931;-80
2022/03/11 10:00:45;;;;;;;;;;;8.80;99.90;;;;;;5091131;28;19916;-80
2022/03/11 10:03:11;;;;;;;;;;;8.70;99.90;;;;;;5097018;28;19915;-79
2022/03/11 10:05:43;;;;;;;;;;;8.70;99.90;;;;;;5112720;28;19963;-81
2022/03/11 10:08:09;;;;;;;;;;;8.80;99.90;;;;;;5100037;28;20254;-81
2022/03/11 10:10:35;;;;;;;;;;;8.80;99.90;;;;;;5093055;28;19916;-80
2022/03/11 10:13:01;;;;;;;;;;;8.80;99.90;;;;;;5092640;28;19935;-79
2022/03/11 10:15:28;;;;;;;;;;;8.80;99.90;;;;;;5092801;28;20345;-80
2022/03/11 10:17:54;;;;;;;;;;;8.80;99.90;;;;;;5092441;28;19908;-79
2022/03/11 10:20:20;;;;;;;;;;;8.80;99.90;;;;;;5090780;28;19995;-78
2022/03/11 10:22:46;;;;;;;;;;;8.80;99.90;;;;;;5095015;28;20357;-79
2022/03/11 10:25:19;;;;;;;;;;;8.70;99.90;;;;;;5095921;28;19947;-79
2022/03/11 10:27:54;;;;;;;;;;;8.80;99.90;;;;;;5096770;28;20058;-79
2022/03/11 10:30:20;;;;;;;;;;;8.80;99.90;;;;;;5094418;28;19912;-79
2022/03/11 10:32:55;;;;;;;;;;;8.80;99.90;;;;;;5096180;28;19920;-79
2022/03/11 10:35:28;;;;;;;;;;;8.80;99.90;;;;;;5095773;28;20084;-78
2022/03/11 10:38:01;;;;;;;;;;;8.80;99.90;;;;;;5096619;28;19908;-79
2022/03/11 10:40:28;;;;;;;;;;;8.80;99.90;;;;;;5095205;28;19954;-79
2022/03/11 10:43:09;;;;;;;;;;;8.80;99.90;;;;;;5096206;28;19908;-79
2022/03/11 10:45:48;;;;;;;;;;;8.80;99.90;;;;;;5096615;28;19912;-78
2022/03/11 10:48:14;;;;;;;;;;;8.90;99.90;;;;;;5095970;28;20315;-79
2022/03/11 10:50:40;;;;;;;;;;;8.90;99.90;;;;;;5096360;28;19965;-78
2022/03/11 10:53:07;;;;;;;;;;;9.00;99.90;;;;;;5095381;28;19919;-78
2022/03/11 10:55:33;;;;;;;;;;;9.00;99.90;;;;;;5095788;28;20262;-78
2022/03/11 10:58:05;;;;;;;;;;;9.00;99.90;;;;;;5095776;28;19942;-78
2022/03/11 11:00:35;;;;;;;;;;;9.10;99.90;;;;;;5095681;28;20253;-79
2022/03/11 11:03:02;;;;;;;;;;;9.10;99.90;;;;;;5095840;28;20332;-79
2022/03/11 11:05:28;;;;;;;;;;;9.20;99.90;;;;;;5095698;28;19951;-78
2022/03/11 11:07:54;;;;;;;;;;;9.20;99.90;;;;;;5095867;28;19908;-79
2022/03/11 11:10:21;;;;;;;;;;;9.20;99.90;;;;;;5094972;28;19913;-78
2022/03/11 11:12:47;;;;;;;;;;;9.30;99.90;;;;;;5095792;28;19938;-78
2022/03/11 11:15:13;;;;;;;;;;;9.30;99.90;;;;;;5094938;28;19909;-78
2022/03/11 11:17:39;;;;;;;;;;;9.30;99.90;;;;;;5108150;28;19930;-76
2022/03/11 11:20:25;;;;;;;;;;;9.20;99.90;;;;;;5104319;28;19915;-78
2022/03/11 11:22:52;;;;;;;;;;;9.20;99.90;;;;;;5073856;28;20318;-79
2022/03/11 11:25:19;;;;;;;;;;;9.20;99.90;;;;;;5094936;28;19983;-79
2022/03/11 11:27:45;;;;;;;;;;;9.20;99.90;;;;;;5095602;28;19908;-80
2022/03/11 11:30:12;;;;;;;;;;;9.20;99.90;;;;;;5094444;28;19916;-79
2022/03/11 11:32:38;;;;;;;;;;;9.20;99.90;;;;;;5095076;28;19922;-79
2022/03/11 11:35:26;;;;;;;;;;;9.20;99.90;;;;;;5095562;28;19915;-79
2022/03/11 11:37:52;;;;;;;;;;;9.20;99.90;;;;;;5095379;28;19908;-80
2022/03/11 11:40:26;;;;;;;;;;;9.20;99.90;;;;;;5094395;28;19919;-79
2022/03/11 11:43:10;;;;;;;;;;;9.20;99.90;;;;;;5094939;28;19908;-79
2022/03/11 11:45:49;;;;;;;;;;;9.20;99.90;;;;;;5094753;28;19909;-80
2022/03/11 11:48:48;;;;;;;;;;;9.20;99.90;;;;;;5094143;28;19916;-80
2022/03/11 11:51:15;;;;;;;;;;;9.20;99.90;;;;;;5071262;28;19923;-79
2022/03/11 11:53:54;;;;;;;;;;;9.20;99.90;;;;;;5094762;28;19923;-80
2022/03/11 11:56:28;;;;;;;;;;;9.20;99.90;;;;;;5094282;28;20012;-77
2022/03/11 11:58:57;;;;;;;;;;;9.20;99.90;;;;;;5094389;28;19988;-78
2022/03/11 12:01:42;;;;;;;;;;;9.20;99.90;;;;;;5093797;28;20318;-77
2022/03/11 12:04:20;;;;;;;;;;;9.20;99.90;;;;;;5094374;28;19909;-79
2022/03/11 12:07:02;;;;;;;;;;;9.20;99.90;;;;;;5094414;28;19999;-78
2022/03/11 12:09:46;;;;;;;;;;;9.20;99.90;;;;;;5094110;28;19912;-77
2022/03/11 12:12:20;;;;;;;;;;;9.20;99.90;;;;;;5092615;28;20269;-77
2022/03/11 12:15:01;;;;;;;;;;;9.20;99.90;;;;;;5094325;28;19919;-80
2022/03/11 12:17:36;;;;;;;;;;;9.30;99.90;;;;;;5093672;28;19969;-77
2022/03/11 12:20:17;;;;;;;;;;;9.30;99.90;;;;;;5091994;28;19912;-77
2022/03/11 12:23:12;;;;;;;;;;;9.40;99.90;;;;;;5091682;28;19908;-81
2022/03/11 12:25:38;;;;;;;;;;;9.40;99.90;;;;;;5084337;28;19908;-77
2022/03/11 12:28:04;;;;;;;;;;;9.40;99.90;;;;;;5093304;28;19908;-80
2022/03/11 12:30:48;;;;;;;;;;;9.50;99.90;;;;;;5105415;28;20050;-76
2022/03/11 12:33:14;;;;;;;;;;;9.50;99.90;;;;;;5093901;28;19918;-77
2022/03/11 12:35:41;;;;;;;;;;;9.50;99.90;;;;;;5092941;28;19912;-78
2022/03/11 12:38:10;;;;;;;;;;;9.60;99.90;;;;;;5093747;28;20313;-77
2022/03/11 12:40:36;;;;;;;;;;;9.60;99.90;;;;;;5093795;28;19908;-77
2022/03/11 12:43:03;;;;;;;;;;;9.60;99.90;;;;;;5093691;28;20191;-78
2022/03/11 12:45:36;;;;;;;;;;;9.70;99.90;;;;;;5092279;28;19973;-79
2022/03/11 12:48:03;;;;;;;;;;;9.70;99.90;;;;;;5093468;28;19912;-79
2022/03/11 12:50:28;;;;;;;;;;;9.70;99.90;;;;;;5092432;28;19920;-77
2022/03/11 12:52:56;;;;;;;;;;;9.70;99.90;;;;;;5093805;28;19962;-78
2022/03/11 12:55:22;;;;;;;;;;;9.70;99.90;;;;;;5092262;28;19916;-78
2022/03/11 12:57:51;;;;;;;;;;;9.80;99.90;;;;;;5093299;28;19953;-79
2022/03/11 13:00:18;;;;;;;;;;;9.80;99.90;;;;;;5093108;28;20471;-84
2022/03/11 13:02:43;;;;;;;;;;;9.90;99.90;;;;;;5098448;28;19911;-88
2022/03/11 13:05:22;;;;;;;;;;;9.90;99.90;;;;;;5094486;28;19912;-83
2022/03/11 13:07:48;;;;;;;;;;;10.00;99.90;;;;;;5093222;28;19908;-80
2022/03/11 13:10:16;;;;;;;;;;;10.10;99.90;;;;;;5092624;28;19960;-78
2022/03/11 13:12:41;;;;;;;;;;;10.20;99.90;;;;;;5092107;28;19919;-78
2022/03/11 13:15:11;;;;;;;;;;;10.30;99.90;;;;;;5093085;28;19908;-78
2022/03/11 13:17:44;;;;;;;;;;;10.40;99.90;;;;;;5094401;28;20368;-77
2022/03/11 13:20:29;;;;;;;;;;;10.50;99.90;;;;;;5103296;28;20331;-77
2022/03/11 13:22:55;;;;;;;;;;;10.70;99.90;;;;;;5102555;28;20001;-78
2022/03/11 13:25:28;;;;;;;;;;;10.70;99.90;;;;;;5092936;28;20365;-77
2022/03/11 13:27:54;;;;;;;;;;;10.90;99.90;;;;;;5092947;28;19991;-78
2022/03/11 13:30:33;;;;;;;;;;;11.00;99.90;;;;;;5092494;28;20000;-77
2022/03/11 13:33:10;;;;;;;;;;;11.10;99.90;;;;;;5092703;28;19935;-79
2022/03/11 13:35:36;;;;;;;;;;;11.20;99.90;;;;;;5091729;28;19961;-77
2022/03/11 13:38:02;;;;;;;;;;;11.30;99.90;;;;;;5092606;28;19912;-77
2022/03/11 13:40:27;;;;;;;;;;;11.40;99.90;;;;;;5091044;28;20003;-77
2022/03/11 13:42:58;;;;;;;;;;;11.40;99.90;;;;;;5091696;28;19912;-77
2022/03/11 13:45:28;;;;;;;;;;;11.60;99.90;;;;;;5092612;28;19908;-77
2022/03/11 13:48:03;;;;;;;;;;;11.60;99.90;;;;;;5103264;28;19912;-78
2022/03/11 13:50:29;;;;;;;;;;;11.70;99.90;;;;;;5092367;28;20272;-77
2022/03/11 13:52:57;;;;;;;;;;;11.80;99.90;;;;;;5092602;28;19912;-77
2022/03/11 13:55:36;;;;;;;;;;;11.90;99.90;;;;;;5092545;28;19931;-77
2022/03/11 13:58:15;;;;;;;;;;;11.90;99.90;;;;;;5096541;28;19943;-78
2022/03/11 14:00:40;;;;;;;;;;;12.00;99.90;;;;;;5097365;28;19934;-77
2022/03/11 14:03:13;;;;;;;;;;;12.00;99.90;;;;;;5095664;28;19908;-77
2022/03/11 14:05:39;;;;;;;;;;;12.00;99.90;;;;;;5096151;28;19912;-78
2022/03/11 14:08:05;;;;;;;;;;;12.10;99.90;;;;;;5095262;28;19933;-78
2022/03/11 14:10:39;;;;;;;;;;;12.20;99.90;;;;;;5095101;28;19920;-77
2022/03/11 14:13:06;;;;;;;;;;;12.20;99.90;;;;;;5095480;28;20341;-77
2022/03/11 14:15:36;;;;;;;;;;;12.40;99.90;;;;;;5095321;28;19912;-77
2022/03/11 14:18:02;;;;;;;;;;;12.40;99.90;;;;;;5095498;28;19977;-78
2022/03/11 14:20:29;;;;;;;;;;;12.50;99.90;;;;;;5094871;28;19912;-78
2022/03/11 14:22:55;;;;;;;;;;;12.60;99.90;;;;;;5095910;28;20053;-77
2022/03/11 14:25:20;;;;;;;;;;;12.70;99.90;;;;;;5095096;28;20387;-77
2022/03/11 14:27:46;;;;;;;;;;;12.70;99.90;;;;;;5095907;28;20250;-78
2022/03/11 14:30:12;;;;;;;;;;;12.70;99.90;;;;;;5095540;28;19915;-78